Campbellford, Canada
Current Conditions -  °F | °C
As of 10:00 AM on Wednesday 26 Nov 2014 (Local Time) from CYTR Reporting Station
Overcast Overcast  
Wind Chill: 26°   Ceiling: 3300
Heat Index: 34°   Visibility: 15mi
Dew Point: 23°   Wind: 10mph
Humidity: 65%   Direction: 40°NE
Pressure: 30.21"   Gusts: NA
Location:  44.3°N, 77.8°W
Report Text: CYTR 261500Z 04009KT 15SM BKN033 OVC080 01/M05 A3021 RMK SC6AC2 SLP235
Loading
Personal Weather Stations






























Interactive Weather Map New forecast layout! Learn more

10-Day Weather Forecast

Advertisements
Track Severe Weather on mobile